Time;durP1;ratioP1;P1;durP2;ratioP2;P2;SDS_P1;SDS_P2;PMS_P1;PMS_P2;Temp;Humidity;BMP_temperature;BMP_pressure;BME280_temperature;BME280_humidity;BME280_pressure;Samples;Min_cycle;Max_cycle;Signal;HPM_P1;HPM_P2
2023/12/21 00:01:04;;;;;;;25.23;4.70;;;9.70;99.90;;;;;;5024117;28;20049;-73
2023/12/21 00:03:29;;;;;;;18.80;4.30;;;9.70;99.90;;;;;;5044940;28;20131;-73
2023/12/21 00:05:55;;;;;;;17.05;3.70;;;9.70;99.90;;;;;;5051375;28;20040;-73
2023/12/21 00:08:21;;;;;;;24.90;4.78;;;9.70;99.90;;;;;;5051434;28;20079;-73
2023/12/21 00:10:46;;;;;;;24.63;4.18;;;9.60;99.90;;;;;;5051352;28;20049;-74
2023/12/21 00:13:12;;;;;;;26.10;4.03;;;9.70;99.90;;;;;;5050471;28;20068;-73
2023/12/21 00:15:38;;;;;;;21.58;4.13;;;9.70;99.90;;;;;;5047592;28;20088;-73
2023/12/21 00:18:04;;;;;;;19.20;3.75;;;9.70;99.90;;;;;;5051841;28;20052;-72
2023/12/21 00:20:29;;;;;;;14.68;3.33;;;9.70;99.90;;;;;;5051640;28;20033;-73
2023/12/21 00:22:55;;;;;;;16.30;3.63;;;9.70;99.90;;;;;;5023774;28;20123;-72
2023/12/21 00:25:20;;;;;;;20.85;4.38;;;9.70;99.90;;;;;;5047162;28;20476;-74
2023/12/21 00:27:46;;;;;;;22.13;4.82;;;9.70;99.90;;;;;;5052582;28;20128;-73
2023/12/21 00:30:12;;;;;;;24.15;3.80;;;9.60;99.90;;;;;;5052911;28;20060;-73
2023/12/21 00:32:38;;;;;;;22.75;3.72;;;9.70;99.90;;;;;;5047422;28;20045;-73
2023/12/21 00:35:04;;;;;;;21.92;4.35;;;9.70;99.90;;;;;;5049691;28;20047;-73
2023/12/21 00:37:36;;;;;;;18.95;4.05;;;9.70;99.90;;;;;;5014873;28;20392;-73
2023/12/21 00:40:03;;;;;;;20.90;3.75;;;9.70;99.90;;;;;;5040360;28;20053;-73
2023/12/21 00:42:30;;;;;;;21.33;3.85;;;9.70;99.90;;;;;;5066909;28;20445;-73
2023/12/21 00:44:56;;;;;;;16.92;3.88;;;9.80;99.90;;;;;;5052164;28;20048;-72
2023/12/21 00:47:23;;;;;;;14.63;4.18;;;9.70;99.90;;;;;;5044609;28;20481;-75
2023/12/21 00:49:48;;;;;;;15.90;3.53;;;9.80;99.90;;;;;;5047331;28;20128;-73
2023/12/21 00:52:14;;;;;;;17.55;3.20;;;9.80;99.90;;;;;;5050906;28;20124;-72
2023/12/21 00:54:40;;;;;;;22.27;4.13;;;9.70;99.90;;;;;;5050380;28;20056;-72
2023/12/21 00:57:06;;;;;;;14.00;3.25;;;9.80;99.90;;;;;;5050393;28;20040;-72
2023/12/21 00:59:31;;;;;;;29.48;4.57;;;9.80;99.90;;;;;;5041931;28;20055;-72
2023/12/21 01:01:57;;;;;;;14.07;3.50;;;9.80;99.90;;;;;;5040963;28;20041;-72
2023/12/21 01:04:24;;;;;;;17.88;3.22;;;9.80;99.90;;;;;;5047914;28;20060;-75
2023/12/21 01:06:50;;;;;;;19.45;3.78;;;9.80;99.90;;;;;;5044314;28;20049;-72
2023/12/21 01:09:16;;;;;;;18.55;4.07;;;9.80;99.90;;;;;;5050659;28;20106;-73
2023/12/21 01:11:41;;;;;;;23.50;4.55;;;9.70;99.90;;;;;;5051615;28;20045;-73
2023/12/21 01:14:07;;;;;;;19.48;4.30;;;9.80;99.90;;;;;;5049942;28;20163;-72
2023/12/21 01:16:33;;;;;;;13.88;3.78;;;9.80;99.90;;;;;;5042515;28;20405;-73
2023/12/21 01:18:58;;;;;;;20.42;3.25;;;9.80;99.90;;;;;;5031376;28;20052;-73
2023/12/21 01:21:24;;;;;;;18.45;3.58;;;9.80;99.90;;;;;;5051025;28;20477;-73
2023/12/21 01:23:50;;;;;;;22.70;3.97;;;9.70;99.90;;;;;;5041874;28;20042;-72
2023/12/21 01:26:16;;;;;;;24.67;3.88;;;9.80;99.90;;;;;;5046179;28;20041;-74
2023/12/21 01:28:42;;;;;;;17.65;3.45;;;9.80;99.90;;;;;;5024207;28;20139;-72
2023/12/21 01:31:08;;;;;;;19.25;3.90;;;9.80;99.90;;;;;;5051697;28;20094;-72
2023/12/21 01:33:34;;;;;;;16.38;3.67;;;9.70;99.90;;;;;;5047201;28;20041;-73
2023/12/21 01:36:00;;;;;;;20.73;3.53;;;9.80;99.90;;;;;;5046497;28;20048;-73
2023/12/21 01:38:25;;;;;;;21.33;4.28;;;9.80;99.90;;;;;;5042598;28;20048;-73
2023/12/21 01:40:51;;;;;;;17.92;4.80;;;9.70;99.90;;;;;;5050140;28;20055;-73
2023/12/21 01:43:17;;;;;;;22.33;3.92;;;9.80;99.90;;;;;;5051588;28;20045;-73
2023/12/21 01:45:42;;;;;;;21.30;4.55;;;9.70;99.90;;;;;;5043826;28;20049;-74
2023/12/21 01:48:10;;;;;;;18.65;4.03;;;9.70;99.90;;;;;;5044496;28;20148;-74
2023/12/21 01:50:36;;;;;;;19.63;3.72;;;9.70;99.90;;;;;;5049431;28;20395;-75
2023/12/21 01:53:03;;;;;;;17.70;3.60;;;9.70;99.90;;;;;;5050222;28;20049;-74
2023/12/21 01:55:30;;;;;;;17.25;3.92;;;9.60;99.90;;;;;;5048965;28;20098;-74
2023/12/21 01:57:58;;;;;;;17.55;3.25;;;9.70;99.90;;;;;;5050478;28;20137;-74
2023/12/21 02:00:23;;;;;;;15.25;3.92;;;9.70;99.90;;;;;;5044353;28;20128;-75
2023/12/21 02:02:50;;;;;;;20.52;4.45;;;9.60;99.90;;;;;;5033350;28;20514;-75
2023/12/21 02:05:16;;;;;;;15.45;4.18;;;9.60;99.90;;;;;;5049956;28;20391;-75
2023/12/21 02:07:41;;;;;;;18.40;3.55;;;9.50;99.90;;;;;;5050137;28;20048;-74
2023/12/21 02:10:09;;;;;;;16.40;3.53;;;9.50;99.90;;;;;;5053440;28;20041;-74
2023/12/21 02:12:35;;;;;;;21.85;4.55;;;9.60;99.90;;;;;;5051805;28;20048;-76
2023/12/21 02:15:00;;;;;;;24.30;4.88;;;9.50;99.90;;;;;;5049747;28;20042;-75
2023/12/21 02:17:27;;;;;;;15.98;4.22;;;9.60;99.90;;;;;;5052852;28;20045;-74
2023/12/21 02:19:53;;;;;;;17.45;4.03;;;9.40;99.90;;;;;;5054789;28;20131;-75
2023/12/21 02:22:22;;;;;;;18.83;4.65;;;9.50;99.90;;;;;;5053600;28;20098;-76
2023/12/21 02:24:48;;;;;;;15.15;3.65;;;9.50;99.90;;;;;;5054557;28;20079;-74
2023/12/21 02:27:14;;;;;;;19.70;4.40;;;9.50;99.90;;;;;;5054420;28;20049;-75
2023/12/21 02:29:40;;;;;;;22.50;4.65;;;9.50;99.90;;;;;;5054389;28;20060;-75
2023/12/21 02:32:05;;;;;;;17.85;3.65;;;9.60;99.90;;;;;;5053165;28;20045;-75
2023/12/21 02:34:31;;;;;;;17.98;3.92;;;9.50;99.90;;;;;;5036527;28;20041;-74
2023/12/21 02:36:57;;;;;;;19.65;3.58;;;9.60;99.90;;;;;;5054241;28;20056;-74
2023/12/21 02:39:22;;;;;;;19.00;4.72;;;9.50;99.90;;;;;;5028065;28;20037;-75
2023/12/21 02:41:51;;;;;;;24.00;4.40;;;9.50;99.90;;;;;;5030305;28;20037;-73
2023/12/21 02:44:17;;;;;;;24.60;4.95;;;9.50;99.90;;;;;;5031323;28;20058;-74
2023/12/21 02:46:43;;;;;;;19.30;4.03;;;9.60;99.90;;;;;;5053009;28;20395;-75
2023/12/21 02:49:08;;;;;;;15.68;3.90;;;9.50;99.90;;;;;;5035662;28;20076;-74
2023/12/21 02:51:34;;;;;;;19.52;4.43;;;9.50;99.90;;;;;;5054647;28;20041;-76
2023/12/21 02:54:00;;;;;;;18.25;4.25;;;9.50;99.90;;;;;;5065806;28;20643;-76
2023/12/21 02:56:25;;;;;;;13.98;3.75;;;9.50;99.90;;;;;;5040552;28;20400;-75
2023/12/21 02:58:51;;;;;;;16.52;4.68;;;9.60;99.90;;;;;;5053800;28;20472;-75
2023/12/21 03:01:17;;;;;;;17.38;4.40;;;9.50;99.90;;;;;;5053139;28;20049;-74
2023/12/21 03:03:43;;;;;;;21.15;3.72;;;9.50;99.90;;;;;;5051805;28;20037;-76
2023/12/21 03:06:08;;;;;;;21.92;4.10;;;9.60;99.90;;;;;;5036170;28;20041;-73
2023/12/21 03:08:34;;;;;;;17.80;4.28;;;9.50;99.90;;;;;;5053390;28;20144;-73
2023/12/21 03:11:00;;;;;;;13.20;4.15;;;9.50;99.90;;;;;;5052784;28;20052;-75
2023/12/21 03:13:25;;;;;;;18.30;3.55;;;9.60;99.90;;;;;;5053369;28;20400;-74
2023/12/21 03:15:51;;;;;;;20.95;4.38;;;9.50;99.90;;;;;;5050424;28;20124;-73
2023/12/21 03:18:17;;;;;;;14.95;3.80;;;9.50;99.90;;;;;;5054009;28;20055;-74
2023/12/21 03:20:42;;;;;;;19.88;3.80;;;9.40;99.90;;;;;;5048768;28;20045;-76
2023/12/21 03:23:08;;;;;;;17.15;3.80;;;9.50;99.90;;;;;;5048783;28;20069;-75
2023/12/21 03:25:34;;;;;;;20.73;3.88;;;9.50;99.90;;;;;;5052916;28;20115;-74
2023/12/21 03:27:59;;;;;;;27.60;4.35;;;9.50;99.90;;;;;;5052851;28;20056;-75
2023/12/21 03:30:25;;;;;;;16.13;3.80;;;9.50;99.90;;;;;;5051457;28;20060;-75
2023/12/21 03:32:51;;;;;;;19.60;4.53;;;9.50;99.90;;;;;;5051588;28;20049;-74
2023/12/21 03:35:17;;;;;;;15.45;4.10;;;9.50;99.90;;;;;;5045623;28;20369;-74
2023/12/21 03:37:43;;;;;;;11.25;4.30;;;9.50;99.90;;;;;;5049383;28;20054;-73
2023/12/21 03:40:09;;;;;;;16.27;4.18;;;9.50;99.90;;;;;;5047412;28;20041;-74
2023/12/21 03:42:34;;;;;;;16.65;4.65;;;9.50;99.90;;;;;;5033058;28;20489;-73
2023/12/21 03:45:00;;;;;;;23.20;4.10;;;9.50;99.90;;;;;;5029895;28;20049;-75
2023/12/21 03:47:26;;;;;;;20.58;4.97;;;9.50;99.90;;;;;;5051551;28;20079;-74
2023/12/21 03:49:51;;;;;;;18.35;3.95;;;9.60;99.90;;;;;;5051961;28;20060;-75
2023/12/21 03:52:17;;;;;;;16.48;4.03;;;9.60;99.90;;;;;;5052423;28;20131;-75
2023/12/21 03:54:43;;;;;;;20.25;4.13;;;9.50;99.90;;;;;;5048862;28;20041;-74
2023/12/21 03:57:08;;;;;;;17.55;4.40;;;9.50;99.90;;;;;;5050639;28;20083;-75
2023/12/21 03:59:35;;;;;;;20.92;4.68;;;9.50;99.90;;;;;;5053416;28;20072;-74
2023/12/21 04:02:01;;;;;;;19.13;3.92;;;9.60;99.90;;;;;;5048319;28;20086;-74
2023/12/21 04:04:27;;;;;;;16.65;4.30;;;9.60;99.90;;;;;;5050865;28;20047;-74
2023/12/21 04:06:53;;;;;;;19.70;4.47;;;9.60;99.90;;;;;;5050913;28;20466;-75
2023/12/21 04:09:19;;;;;;;15.82;4.10;;;9.60;99.90;;;;;;5051973;28;20049;-75
2023/12/21 04:11:44;;;;;;;24.17;4.97;;;9.60;99.90;;;;;;5068656;28;20044;-75
2023/12/21 04:14:10;;;;;;;12.82;4.05;;;9.50;99.90;;;;;;5031399;28;20168;-75
2023/12/21 04:16:36;;;;;;;13.10;4.15;;;9.50;99.90;;;;;;5038787;28;20052;-75
2023/12/21 04:19:03;;;;;;;18.25;4.32;;;9.50;99.90;;;;;;5052587;28;20526;-75
2023/12/21 04:21:30;;;;;;;16.08;4.38;;;9.60;99.90;;;;;;5051858;28;20049;-75
2023/12/21 04:23:55;;;;;;;16.45;3.92;;;9.50;99.90;;;;;;5052439;28;20231;-75
2023/12/21 04:26:22;;;;;;;16.48;4.50;;;9.60;99.90;;;;;;5050995;28;20150;-75
2023/12/21 04:28:49;;;;;;;11.75;3.53;;;9.60;99.90;;;;;;5042980;28;20068;-75
2023/12/21 04:31:19;;;;;;;14.18;3.88;;;9.50;99.90;;;;;;5046908;28;20903;-75
2023/12/21 04:33:46;;;;;;;14.15;3.70;;;9.50;99.90;;;;;;5048196;28;20088;-74
2023/12/21 04:36:12;;;;;;;22.73;4.53;;;9.60;99.90;;;;;;5038289;28;20110;-75
2023/12/21 04:38:38;;;;;;;15.80;4.20;;;9.60;99.90;;;;;;5046109;28;20040;-75
2023/12/21 04:41:04;;;;;;;18.35;4.30;;;9.50;99.90;;;;;;5050249;28;20045;-75
2023/12/21 04:43:29;;;;;;;10.90;3.47;;;9.60;99.90;;;;;;5067819;28;20041;-74
2023/12/21 04:45:55;;;;;;;10.13;3.22;;;9.50;99.90;;;;;;5050582;28;20044;-76
2023/12/21 04:48:21;;;;;;;23.83;3.80;;;9.50;99.90;;;;;;5028268;28;20053;-75
2023/12/21 04:50:46;;;;;;;21.02;4.40;;;9.50;99.90;;;;;;5049899;28;20494;-75
2023/12/21 04:53:13;;;;;;;16.55;3.88;;;9.50;99.90;;;;;;5051771;28;20492;-74
2023/12/21 04:55:38;;;;;;;12.23;3.40;;;9.60;99.90;;;;;;5052290;28;20397;-75
2023/12/21 04:58:04;;;;;;;12.90;3.50;;;9.50;99.90;;;;;;5045500;28;20096;-74
2023/12/21 05:00:30;;;;;;;16.65;3.50;;;9.50;99.90;;;;;;5041628;28;20116;-75
2023/12/21 05:02:55;;;;;;;20.15;4.38;;;9.50;99.90;;;;;;5051765;28;20054;-76
2023/12/21 05:05:21;;;;;;;15.90;2.90;;;9.50;99.90;;;;;;5051613;28;20133;-75
2023/12/21 05:07:50;;;;;;;9.93;2.72;;;9.50;99.90;;;;;;5047613;28;20045;-75
2023/12/21 05:10:18;;;;;;;10.55;3.15;;;9.60;99.90;;;;;;5051492;28;20049;-74
2023/12/21 05:12:44;;;;;;;16.00;4.10;;;9.50;99.90;;;;;;5066678;28;20053;-74
2023/12/21 05:15:10;;;;;;;13.98;3.33;;;9.50;99.90;;;;;;5043195;28;20057;-75
2023/12/21 05:17:36;;;;;;;14.00;3.75;;;9.50;99.90;;;;;;5044420;28;20052;-76
2023/12/21 05:20:03;;;;;;;18.40;3.70;;;9.50;99.90;;;;;;5051160;28;20056;-76
2023/12/21 05:22:29;;;;;;;14.75;3.80;;;9.50;99.90;;;;;;5051758;28;20442;-76
2023/12/21 05:24:54;;;;;;;13.75;3.55;;;9.50;99.90;;;;;;5051764;28;20095;-76
2023/12/21 05:27:20;;;;;;;18.65;4.07;;;9.60;99.90;;;;;;5051472;28;20109;-74
2023/12/21 05:29:46;;;;;;;18.02;3.83;;;9.60;99.90;;;;;;5022688;28;20415;-74
2023/12/21 05:32:11;;;;;;;17.83;4.05;;;9.50;99.90;;;;;;5050669;28;20041;-74
2023/12/21 05:34:37;;;;;;;21.05;3.65;;;9.60;99.90;;;;;;5050565;28;20045;-76
2023/12/21 05:37:03;;;;;;;17.30;3.72;;;9.50;99.90;;;;;;5051614;28;20041;-76
2023/12/21 05:39:29;;;;;;;18.63;3.38;;;9.60;99.90;;;;;;5049899;28;20041;-75
2023/12/21 05:41:54;;;;;;;15.38;3.47;;;9.50;99.90;;;;;;5050996;28;20045;-75
2023/12/21 05:44:20;;;;;;;15.90;3.65;;;9.60;99.90;;;;;;5054726;28;20045;-75
2023/12/21 05:46:46;;;;;;;15.38;3.30;;;9.60;99.90;;;;;;5054634;28;20059;-75
2023/12/21 05:49:12;;;;;;;24.17;4.65;;;9.60;99.90;;;;;;5053786;28;20041;-73
2023/12/21 05:51:37;;;;;;;14.52;3.63;;;9.60;99.90;;;;;;5046703;28;20044;-75
2023/12/21 05:54:03;;;;;;;12.55;3.60;;;9.60;99.90;;;;;;5055086;28;20044;-75
2023/12/21 05:56:35;;;;;;;16.55;3.40;;;9.60;99.90;;;;;;5055618;28;20041;-74
2023/12/21 05:59:01;;;;;;;14.45;3.20;;;9.60;99.90;;;;;;5052467;28;20116;-75
2023/12/21 06:01:26;;;;;;;19.35;3.38;;;9.60;99.90;;;;;;5052294;28;20048;-75
2023/12/21 06:03:52;;;;;;;15.48;2.90;;;9.60;99.90;;;;;;5054084;28;20048;-75
2023/12/21 06:06:18;;;;;;;15.25;3.13;;;9.60;99.90;;;;;;5017336;28;20041;-74
2023/12/21 06:08:43;;;;;;;14.77;2.97;;;9.60;99.90;;;;;;5045889;28;20517;-75
2023/12/21 06:11:09;;;;;;;14.50;3.47;;;9.60;99.90;;;;;;5053114;28;20041;-75
2023/12/21 06:13:35;;;;;;;16.92;4.05;;;9.60;99.90;;;;;;5053689;28;20069;-76
2023/12/21 06:16:01;;;;;;;18.92;3.67;;;9.60;99.90;;;;;;5054220;28;20051;-75
2023/12/21 06:18:26;;;;;;;13.35;3.70;;;9.60;99.90;;;;;;5070247;28;20523;-76
2023/12/21 06:20:52;;;;;;;19.13;3.78;;;9.70;99.90;;;;;;5053517;28;20179;-75
2023/12/21 06:23:18;;;;;;;14.82;3.67;;;9.70;99.90;;;;;;5054384;28;20190;-75
2023/12/21 06:25:44;;;;;;;12.73;3.05;;;9.60;99.90;;;;;;5069961;28;20045;-75
2023/12/21 06:28:09;;;;;;;12.02;2.90;;;9.60;99.90;;;;;;5069877;28;20039;-76
2023/12/21 06:30:35;;;;;;;21.45;4.82;;;9.60;99.90;;;;;;5054783;28;20053;-76
2023/12/21 06:33:01;;;;;;;14.02;3.33;;;9.70;99.90;;;;;;5040952;28;20067;-75
2023/12/21 06:35:27;;;;;;;14.02;3.30;;;9.70;99.90;;;;;;5053801;28;20040;-75
2023/12/21 06:37:53;;;;;;;10.60;2.90;;;9.70;99.90;;;;;;5050464;28;20057;-74
2023/12/21 06:40:18;;;;;;;21.05;3.10;;;9.70;99.90;;;;;;5039482;28;20083;-76
2023/12/21 06:42:44;;;;;;;16.88;3.55;;;9.70;99.90;;;;;;5044966;28;20049;-74
2023/12/21 06:45:11;;;;;;;17.73;3.50;;;9.70;99.90;;;;;;5049775;28;20098;-75
2023/12/21 06:47:37;;;;;;;12.05;3.22;;;9.70;99.90;;;;;;5053889;28;20049;-75
2023/12/21 06:50:04;;;;;;;10.32;3.03;;;9.70;99.90;;;;;;5028508;28;20042;-75
2023/12/21 06:52:30;;;;;;;15.40;3.05;;;9.70;99.90;;;;;;5048680;28;20052;-75
2023/12/21 06:54:57;;;;;;;10.45;3.05;;;9.70;99.90;;;;;;5052672;28;20049;-74
2023/12/21 06:57:23;;;;;;;15.65;3.25;;;9.70;99.90;;;;;;5054181;28;20365;-74
2023/12/21 06:59:49;;;;;;;11.40;2.50;;;9.70;99.90;;;;;;5052762;28;20052;-74
2023/12/21 07:02:15;;;;;;;10.98;2.63;;;9.70;99.90;;;;;;5026060;28;20046;-76
2023/12/21 07:04:41;;;;;;;18.20;3.65;;;9.70;99.90;;;;;;5042691;28;20045;-74
2023/12/21 07:07:06;;;;;;;9.23;2.67;;;9.80;99.90;;;;;;5033050;28;20045;-75
2023/12/21 07:09:32;;;;;;;9.05;2.47;;;9.70;99.90;;;;;;5066996;28;20045;-74
2023/12/21 07:12:00;;;;;;;8.70;2.22;;;9.70;99.90;;;;;;5033326;28;20606;-74
2023/12/21 07:14:26;;;;;;;11.68;2.50;;;9.70;99.90;;;;;;5040120;28;20058;-75
2023/12/21 07:16:51;;;;;;;10.13;2.33;;;9.70;99.90;;;;;;5052854;28;20059;-75
2023/12/21 07:19:17;;;;;;;6.18;2.00;;;9.70;99.90;;;;;;5052793;28;20041;-76
2023/12/21 07:21:43;;;;;;;7.25;2.38;;;9.70;99.90;;;;;;5051897;28;20053;-74
2023/12/21 07:24:09;;;;;;;7.40;2.33;;;9.70;99.90;;;;;;5053139;28;20108;-74
2023/12/21 07:26:35;;;;;;;6.15;1.92;;;9.70;99.90;;;;;;5052220;28;20055;-74
2023/12/21 07:29:01;;;;;;;7.10;2.08;;;9.70;99.90;;;;;;5052616;28;20160;-75
2023/12/21 07:31:26;;;;;;;5.88;1.85;;;9.70;99.90;;;;;;5051004;28;20393;-74
2023/12/21 07:33:52;;;;;;;6.35;1.85;;;9.70;99.90;;;;;;5049058;28;20045;-74
2023/12/21 07:36:18;;;;;;;7.00;1.92;;;9.70;99.90;;;;;;5050684;28;20051;-75
2023/12/21 07:38:43;;;;;;;8.82;1.90;;;9.70;99.90;;;;;;5052131;28;20550;-75
2023/12/21 07:41:10;;;;;;;7.25;2.00;;;9.50;99.90;;;;;;5052662;28;20534;-75
2023/12/21 07:43:37;;;;;;;8.65;2.03;;;9.70;99.90;;;;;;5039746;28;20079;-75
2023/12/21 07:46:03;;;;;;;7.20;2.20;;;9.80;99.90;;;;;;5047784;28;20140;-75
2023/12/21 07:48:29;;;;;;;7.25;2.35;;;9.70;99.90;;;;;;5040920;28;20038;-75
2023/12/21 07:50:54;;;;;;;7.18;1.90;;;9.80;99.90;;;;;;5052156;28;20041;-74
2023/12/21 07:53:20;;;;;;;8.60;2.50;;;9.70;99.90;;;;;;5034949;28;20090;-75
2023/12/21 07:55:46;;;;;;;11.32;2.50;;;9.80;99.90;;;;;;5051645;28;20053;-75
2023/12/21 07:58:11;;;;;;;6.70;2.17;;;9.70;99.90;;;;;;5049538;28;20133;-75
2023/12/21 08:00:37;;;;;;;12.23;2.60;;;9.80;99.90;;;;;;5032126;28;20135;-74
2023/12/21 08:03:03;;;;;;;10.50;2.60;;;9.80;99.90;;;;;;5067983;28;20044;-74
2023/12/21 08:05:29;;;;;;;13.23;2.53;;;9.80;99.90;;;;;;5051229;28;20080;-75
2023/12/21 08:07:54;;;;;;;10.38;2.58;;;9.80;99.90;;;;;;5051179;28;20055;-76
2023/12/21 08:10:20;;;;;;;9.75;2.88;;;9.80;99.90;;;;;;5068366;28;20128;-73
2023/12/21 08:12:46;;;;;;;9.07;2.50;;;9.80;99.90;;;;;;5067628;28;20564;-75
2023/12/21 08:15:12;;;;;;;10.95;2.95;;;9.80;99.90;;;;;;5047480;28;20057;-75
2023/12/21 08:17:41;;;;;;;11.43;3.15;;;9.80;99.90;;;;;;5045194;28;20170;-75
2023/12/21 08:20:07;;;;;;;13.30;3.00;;;9.80;99.90;;;;;;5048339;28;20042;-75
2023/12/21 08:22:33;;;;;;;17.85;3.40;;;9.90;99.90;;;;;;5045529;28;20124;-76
2023/12/21 08:24:59;;;;;;;20.67;4.25;;;9.80;99.90;;;;;;5043289;28;20491;-75
2023/12/21 08:27:25;;;;;;;16.92;3.55;;;9.80;99.90;;;;;;5050931;28;20048;-76
2023/12/21 08:29:51;;;;;;;19.77;4.53;;;9.90;99.90;;;;;;5047546;28;20138;-78
2023/12/21 08:32:19;;;;;;;19.60;3.60;;;9.90;99.90;;;;;;5040555;28;20125;-77
2023/12/21 08:34:45;;;;;;;20.83;4.75;;;9.90;99.90;;;;;;5038145;28;20120;-77
2023/12/21 08:37:12;;;;;;;25.40;5.05;;;10.00;99.90;;;;;;5052489;28;20124;-77
2023/12/21 08:39:39;;;;;;;21.73;4.20;;;10.00;99.90;;;;;;5050044;28;20045;-78
2023/12/21 08:42:09;;;;;;;18.52;4.00;;;10.00;99.90;;;;;;5029501;28;20053;-78
2023/12/21 08:44:38;;;;;;;26.80;4.75;;;10.10;99.90;;;;;;5044428;28;20384;-76
2023/12/21 08:47:07;;;;;;;23.23;4.40;;;10.10;99.90;;;;;;5050893;28;20387;-79
2023/12/21 08:49:33;;;;;;;16.85;3.78;;;10.10;99.90;;;;;;5046226;28;20037;-77
2023/12/21 08:51:59;;;;;;;14.20;3.40;;;10.10;99.90;;;;;;5050378;28;20055;-78
2023/12/21 08:54:24;;;;;;;21.17;4.10;;;10.10;99.90;;;;;;5047464;28;20036;-77
2023/12/21 08:56:53;;;;;;;17.70;4.03;;;10.20;99.90;;;;;;5051645;28;20048;-78
2023/12/21 08:59:19;;;;;;;25.58;5.20;;;10.30;99.90;;;;;;5019539;28;20137;-78
2023/12/21 09:01:45;;;;;;;18.33;3.65;;;10.30;99.90;;;;;;5043982;28;20055;-78
2023/12/21 09:04:10;;;;;;;17.83;3.47;;;10.30;99.90;;;;;;5050076;28;20037;-76
2023/12/21 09:06:36;;;;;;;15.52;3.20;;;10.30;99.90;;;;;;5048881;28;20045;-77
2023/12/21 09:09:03;;;;;;;20.45;3.05;;;10.30;99.90;;;;;;5051879;28;20078;-77
2023/12/21 09:11:28;;;;;;;14.05;3.35;;;10.30;99.90;;;;;;5047158;28;20491;-78
2023/12/21 09:13:58;;;;;;;16.50;3.60;;;10.40;99.90;;;;;;5051169;28;20091;-79
2023/12/21 09:16:24;;;;;;;16.27;3.35;;;10.40;99.90;;;;;;5045699;28;20120;-78
2023/12/21 09:18:51;;;;;;;15.00;3.72;;;10.40;99.90;;;;;;5049989;28;20123;-79
2023/12/21 09:21:17;;;;;;;18.80;3.53;;;10.40;99.90;;;;;;5048231;28;20056;-79
2023/12/21 09:23:43;;;;;;;15.60;3.78;;;10.40;99.90;;;;;;5049985;28;20112;-80
2023/12/21 09:26:09;;;;;;;21.33;3.55;;;10.40;99.90;;;;;;5051575;28;20044;-78
2023/12/21 09:28:39;;;;;;;25.83;3.55;;;10.40;99.90;;;;;;5050008;28;20049;-79
2023/12/21 09:31:05;;;;;;;23.88;4.38;;;10.40;99.90;;;;;;5033604;28;20061;-78
2023/12/21 09:33:33;;;;;;;19.50;4.07;;;10.50;99.90;;;;;;5045757;28;20436;-78
2023/12/21 09:36:05;;;;;;;18.48;4.07;;;10.50;99.90;;;;;;5031090;28;20053;-78
2023/12/21 09:38:31;;;;;;;18.63;4.07;;;10.50;99.90;;;;;;5049246;28;20444;-78
2023/12/21 09:40:58;;;;;;;26.88;4.18;;;10.50;99.90;;;;;;5043000;28;20045;-78
2023/12/21 09:43:24;;;;;;;20.45;4.35;;;10.60;99.90;;;;;;5018288;28;20053;-77
2023/12/21 09:45:51;;;;;;;16.80;3.63;;;10.60;99.90;;;;;;5051197;28;20052;-77
2023/12/21 09:48:19;;;;;;;16.92;3.67;;;10.70;99.90;;;;;;5049914;28;20495;-77
2023/12/21 09:50:45;;;;;;;22.90;3.70;;;10.70;99.90;;;;;;5048308;28;21569;-78
2023/12/21 09:53:15;;;;;;;20.63;3.65;;;10.70;99.90;;;;;;5048842;28;20052;-78
2023/12/21 09:55:46;;;;;;;10.43;3.30;;;10.70;99.90;;;;;;5039222;28;20053;-75
2023/12/21 09:58:12;;;;;;;19.30;3.55;;;10.70;99.90;;;;;;5042635;28;20057;-76
2023/12/21 10:00:41;;;;;;;12.55;3.17;;;10.70;99.90;;;;;;5034185;28;20037;-78
2023/12/21 10:03:07;;;;;;;10.68;2.88;;;10.70;99.90;;;;;;5039784;28;20124;-77
2023/12/21 10:05:34;;;;;;;21.63;4.07;;;10.70;99.90;;;;;;5044723;28;20548;-78
2023/12/21 10:08:00;;;;;;;18.70;3.83;;;10.70;99.90;;;;;;5051135;28;20064;-77
2023/12/21 10:10:26;;;;;;;23.48;4.35;;;10.70;99.90;;;;;;5024916;28;20054;-77
2023/12/21 10:12:52;;;;;;;24.77;4.70;;;10.70;99.90;;;;;;5046062;28;20128;-79
2023/12/21 10:15:19;;;;;;;19.77;3.88;;;10.70;99.90;;;;;;5045984;28;20129;-77
2023/12/21 10:17:45;;;;;;;18.27;3.42;;;10.70;99.90;;;;;;5051050;28;20052;-78
2023/12/21 10:20:11;;;;;;;16.83;3.70;;;10.80;99.90;;;;;;5051225;28;20208;-77
2023/12/21 10:22:39;;;;;;;20.10;3.50;;;10.80;99.90;;;;;;5047131;28;20075;-76
2023/12/21 10:25:07;;;;;;;13.18;2.75;;;10.80;99.90;;;;;;5048631;28;20052;-77
2023/12/21 10:27:34;;;;;;;15.52;4.03;;;10.90;99.90;;;;;;5049636;28;20077;-75
2023/12/21 10:30:00;;;;;;;20.80;3.50;;;11.00;99.90;;;;;;5052705;28;20119;-76
2023/12/21 10:32:25;;;;;;;22.65;4.88;;;11.00;99.90;;;;;;5054638;28;20056;-78
2023/12/21 10:34:53;;;;;;;14.05;3.80;;;11.10;99.90;;;;;;5044553;28;20053;-77
2023/12/21 10:37:20;;;;;;;14.05;3.40;;;11.10;99.90;;;;;;5049630;28;20053;-77
2023/12/21 10:39:46;;;;;;;24.88;4.70;;;11.10;99.90;;;;;;5049069;28;20488;-78
2023/12/21 10:42:15;;;;;;;18.27;3.38;;;11.00;99.90;;;;;;5054280;28;20124;-76
2023/12/21 10:44:45;;;;;;;17.52;3.58;;;11.00;99.90;;;;;;5058569;28;20048;-77
2023/12/21 10:47:11;;;;;;;19.38;4.18;;;11.00;99.90;;;;;;5050778;28;20059;-75
2023/12/21 10:49:40;;;;;;;17.02;4.25;;;11.10;99.90;;;;;;5049254;28;20388;-75
2023/12/21 10:52:06;;;;;;;18.52;4.07;;;11.00;99.90;;;;;;5033450;28;20060;-72
2023/12/21 10:54:37;;;;;;;16.27;3.08;;;11.10;99.90;;;;;;5049102;28;20041;-79
2023/12/21 10:57:04;;;;;;;22.52;4.45;;;11.10;99.90;;;;;;5030040;28;20049;-80
2023/12/21 10:59:31;;;;;;;15.27;3.25;;;11.20;99.90;;;;;;5033292;28;20052;-80
2023/12/21 11:01:57;;;;;;;23.08;3.90;;;11.20;99.90;;;;;;5044902;28;20412;-80
2023/12/21 11:04:24;;;;;;;19.00;3.95;;;11.20;99.90;;;;;;5051905;28;20049;-79
2023/12/21 11:06:50;;;;;;;22.85;3.95;;;11.20;99.90;;;;;;5028190;28;20044;-78
2023/12/21 11:09:19;;;;;;;22.23;4.00;;;11.10;99.90;;;;;;5053833;28;20140;-81
2023/12/21 11:11:48;;;;;;;21.13;3.83;;;11.00;99.90;;;;;;5036889;28;20049;-81
2023/12/21 11:14:14;;;;;;;23.05;4.55;;;11.00;99.90;;;;;;5069821;28;20041;-83
2023/12/21 11:16:51;;;;;;;18.83;4.32;;;11.00;99.90;;;;;;5042948;28;20103;-82
2023/12/21 11:19:25;;;;;;;18.42;4.40;;;11.00;99.90;;;;;;5054071;28;20041;-81
2023/12/21 11:21:52;;;;;;;21.70;4.70;;;11.00;99.90;;;;;;5055293;28;20096;-82
2023/12/21 11:24:22;;;;;;;15.65;3.78;;;11.10;99.90;;;;;;5055069;28;20037;-83
2023/12/21 11:26:49;;;;;;;22.77;4.32;;;11.10;99.90;;;;;;5052049;28;20045;-81
2023/12/21 11:29:27;;;;;;;20.40;4.72;;;11.10;99.90;;;;;;5035013;28;20059;-83
2023/12/21 11:31:53;;;;;;;15.30;3.95;;;11.10;99.90;;;;;;5037534;28;20056;-82
2023/12/21 11:34:21;;;;;;;19.55;4.38;;;11.10;99.90;;;;;;5053904;28;20117;-82
2023/12/21 11:36:57;;;;;;;26.20;4.07;;;11.20;99.90;;;;;;5052035;28;20506;-82
2023/12/21 11:39:24;;;;;;;16.60;4.32;;;11.10;99.90;;;;;;5054763;28;20492;-82
2023/12/21 11:41:57;;;;;;;25.30;4.53;;;11.20;99.90;;;;;;5072114;28;20400;-82
2023/12/21 11:44:24;;;;;;;27.67;4.78;;;11.20;99.90;;;;;;5055361;28;20045;-81
2023/12/21 11:46:57;;;;;;;21.35;4.25;;;11.20;99.90;;;;;;5053417;28;20056;-83
2023/12/21 11:49:26;;;;;;;22.17;4.40;;;11.20;99.90;;;;;;5055264;28;20446;-80
2023/12/21 11:51:52;;;;;;;29.83;5.55;;;11.20;99.90;;;;;;5054619;28;20049;-82
2023/12/21 11:54:22;;;;;;;21.83;4.57;;;11.30;99.90;;;;;;5052779;28;20249;-83
2023/12/21 11:56:52;;;;;;;17.95;4.28;;;11.20;99.90;;;;;;5051614;28;20061;-81
2023/12/21 11:59:22;;;;;;;21.38;4.65;;;11.20;99.90;;;;;;5044777;28;20494;-81
2023/12/21 12:01:49;;;;;;;29.42;5.07;;;11.20;99.90;;;;;;5044189;28;20045;-81
2023/12/21 12:04:15;;;;;;;29.42;5.03;;;11.20;99.90;;;;;;5052252;28;20136;-80
2023/12/21 12:06:46;;;;;;;22.70;3.53;;;11.20;99.90;;;;;;5055110;28;20059;-80
2023/12/21 12:09:12;;;;;;;21.95;5.53;;;11.30;99.90;;;;;;5049802;28;20053;-80
2023/12/21 12:11:39;;;;;;;25.15;5.15;;;11.30;99.90;;;;;;5055073;28;20045;-81
2023/12/21 12:14:05;;;;;;;19.83;4.78;;;11.30;99.90;;;;;;5054521;28;20116;-79
2023/12/21 12:16:34;;;;;;;26.00;5.05;;;11.30;99.90;;;;;;5054118;28;20052;-80
2023/12/21 12:19:00;;;;;;;27.88;5.45;;;11.30;99.90;;;;;;5052732;28;20476;-80
2023/12/21 12:21:26;;;;;;;25.00;4.60;;;11.30;99.90;;;;;;5054213;28;20041;-79
2023/12/21 12:23:53;;;;;;;23.13;5.13;;;11.40;99.90;;;;;;5053359;28;20400;-79
2023/12/21 12:26:19;;;;;;;25.42;4.70;;;11.30;99.90;;;;;;5051756;28;20048;-80
2023/12/21 12:28:47;;;;;;;22.27;4.60;;;11.30;99.90;;;;;;5052128;28;20064;-79
2023/12/21 12:31:13;;;;;;;22.33;4.45;;;11.30;99.90;;;;;;5051917;28;20056;-79
2023/12/21 12:33:39;;;;;;;25.55;4.78;;;11.30;99.90;;;;;;5049064;28;20046;-79
2023/12/21 12:36:07;;;;;;;26.88;4.88;;;11.30;99.90;;;;;;5044374;28;20399;-78
2023/12/21 12:38:33;;;;;;;24.77;5.50;;;11.30;99.90;;;;;;5051818;28;20060;-79
2023/12/21 12:40:59;;;;;;;13.77;2.53;;;11.30;99.90;;;;;;5032309;28;20037;-76